Westboro, Ohio
Current Conditions -  °F | °C
As of 2:23 PM on Friday 31 Oct 2014 (Local Time) from KILN Reporting Station
Light Rain Light Rain  
Wind Chill:   Ceiling: 1900
Heat Index:   Visibility: 4mi
Dew Point:   Wind: 8mph
Humidity: 86%   Direction: 270°W
Pressure: 29.87"   Gusts: NA
Location:  39.2883°N, 83.8861°W
Report Text: KILN 311823Z AUTO 27007KT 4SM -RA BR FEW013 BKN019 OVC038 06/04 A2987 RMK AO2 P0002 T00610039
Loading
Personal Weather Stations






























Interactive Weather Map
Tropical Storm Tracking
New forecast layout! Learn more

10-Day Weather Forecast

Advertisements
Track Severe Weather on mobile